sensor_id;sensor_type;location;lat;lon;timestamp;P1;durP1;ratioP1;P2;durP2;ratioP2
70545;SDS011;58098;51.680;5.134;2023-08-07T00:02:01;10.48;;;2.72;;
70545;SDS011;58098;51.680;5.134;2023-08-07T00:04:26;16.87;;;3.33;;
70545;SDS011;58098;51.680;5.134;2023-08-07T00:06:51;13.87;;;2.77;;
70545;SDS011;58098;51.680;5.134;2023-08-07T00:09:17;10.13;;;2.47;;
70545;SDS011;58098;51.680;5.134;2023-08-07T00:11:42;10.80;;;3.20;;
70545;SDS011;58098;51.680;5.134;2023-08-07T00:14:07;17.63;;;3.20;;
70545;SDS011;58098;51.680;5.134;2023-08-07T00:16:33;13.75;;;2.80;;
70545;SDS011;58098;51.680;5.134;2023-08-07T00:18:58;13.97;;;3.40;;
70545;SDS011;58098;51.680;5.134;2023-08-07T00:21:24;16.10;;;3.57;;
70545;SDS011;58098;51.680;5.134;2023-08-07T00:23:49;13.20;;;2.80;;
70545;SDS011;58098;51.680;5.134;2023-08-07T00:26:15;15.52;;;3.20;;
70545;SDS011;58098;51.680;5.134;2023-08-07T00:28:41;12.32;;;2.72;;
70545;SDS011;58098;51.680;5.134;2023-08-07T00:31:06;16.87;;;3.07;;
70545;SDS011;58098;51.680;5.134;2023-08-07T00:33:32;13.27;;;2.83;;
70545;SDS011;58098;51.680;5.134;2023-08-07T00:35:57;13.17;;;3.30;;
70545;SDS011;58098;51.680;5.134;2023-08-07T00:38:22;10.77;;;3.03;;
70545;SDS011;58098;51.680;5.134;2023-08-07T00:40:48;12.43;;;3.37;;
70545;SDS011;58098;51.680;5.134;2023-08-07T00:43:13;16.17;;;3.47;;
70545;SDS011;58098;51.680;5.134;2023-08-07T00:45:42;14.27;;;3.40;;
70545;SDS011;58098;51.680;5.134;2023-08-07T00:48:10;14.93;;;3.60;;
70545;SDS011;58098;51.680;5.134;2023-08-07T00:50:37;15.20;;;3.27;;
70545;SDS011;58098;51.680;5.134;2023-08-07T00:53:04;14.73;;;3.25;;
70545;SDS011;58098;51.680;5.134;2023-08-07T00:55:30;22.20;;;3.35;;
70545;SDS011;58098;51.680;5.134;2023-08-07T00:57:56;13.63;;;3.60;;
70545;SDS011;58098;51.680;5.134;2023-08-07T01:00:23;13.55;;;3.45;;
70545;SDS011;58098;51.680;5.134;2023-08-07T01:02:49;21.58;;;3.72;;
70545;SDS011;58098;51.680;5.134;2023-08-07T01:05:16;14.40;;;2.88;;
70545;SDS011;58098;51.680;5.134;2023-08-07T01:07:42;7.65;;;2.50;;
70545;SDS011;58098;51.680;5.134;2023-08-07T01:10:08;10.37;;;3.03;;
70545;SDS011;58098;51.680;5.134;2023-08-07T01:12:36;11.80;;;3.33;;
70545;SDS011;58098;51.680;5.134;2023-08-07T01:15:14;9.43;;;2.67;;
70545;SDS011;58098;51.680;5.134;2023-08-07T01:17:43;8.55;;;2.30;;
70545;SDS011;58098;51.680;5.134;2023-08-07T01:20:11;11.27;;;3.60;;
70545;SDS011;58098;51.680;5.134;2023-08-07T01:22:36;9.60;;;2.97;;
70545;SDS011;58098;51.680;5.134;2023-08-07T01:25:02;13.93;;;3.57;;
70545;SDS011;58098;51.680;5.134;2023-08-07T01:35:19;10.25;;;3.17;;
70545;SDS011;58098;51.680;5.134;2023-08-07T01:37:47;10.40;;;3.28;;
70545;SDS011;58098;51.680;5.134;2023-08-07T01:40:15;12.70;;;3.43;;
70545;SDS011;58098;51.680;5.134;2023-08-07T01:42:41;11.25;;;3.03;;
70545;SDS011;58098;51.680;5.134;2023-08-07T01:45:08;6.18;;;3.10;;
70545;SDS011;58098;51.680;5.134;2023-08-07T01:47:34;12.67;;;3.57;;
70545;SDS011;58098;51.680;5.134;2023-08-07T01:49:59;9.80;;;3.20;;
70545;SDS011;58098;51.680;5.134;2023-08-07T01:52:25;15.27;;;3.43;;
70545;SDS011;58098;51.680;5.134;2023-08-07T01:54:50;15.23;;;3.83;;
70545;SDS011;58098;51.680;5.134;2023-08-07T01:57:16;9.95;;;3.20;;
70545;SDS011;58098;51.680;5.134;2023-08-07T01:59:41;19.27;;;4.07;;
70545;SDS011;58098;51.680;5.134;2023-08-07T02:02:07;15.73;;;4.13;;
70545;SDS011;58098;51.680;5.134;2023-08-07T02:04:32;15.23;;;3.65;;
70545;SDS011;58098;51.680;5.134;2023-08-07T02:06:58;14.63;;;4.10;;
70545;SDS011;58098;51.680;5.134;2023-08-07T02:09:23;13.43;;;3.83;;
70545;SDS011;58098;51.680;5.134;2023-08-07T02:11:48;10.83;;;4.00;;
70545;SDS011;58098;51.680;5.134;2023-08-07T02:14:14;13.07;;;4.00;;
70545;SDS011;58098;51.680;5.134;2023-08-07T02:16:39;22.27;;;4.10;;
70545;SDS011;58098;51.680;5.134;2023-08-07T02:19:04;16.70;;;3.90;;
70545;SDS011;58098;51.680;5.134;2023-08-07T02:21:30;19.47;;;4.13;;
70545;SDS011;58098;51.680;5.134;2023-08-07T02:23:57;18.10;;;4.55;;
70545;SDS011;58098;51.680;5.134;2023-08-07T02:26:22;20.77;;;4.63;;
70545;SDS011;58098;51.680;5.134;2023-08-07T02:28:47;17.33;;;4.10;;
70545;SDS011;58098;51.680;5.134;2023-08-07T02:31:13;20.57;;;4.90;;
70545;SDS011;58098;51.680;5.134;2023-08-07T02:33:38;12.93;;;4.10;;
70545;SDS011;58098;51.680;5.134;2023-08-07T02:36:03;15.98;;;3.83;;
70545;SDS011;58098;51.680;5.134;2023-08-07T02:38:29;16.87;;;4.03;;
70545;SDS011;58098;51.680;5.134;2023-08-07T02:40:54;15.73;;;3.57;;
70545;SDS011;58098;51.680;5.134;2023-08-07T02:43:20;11.77;;;3.80;;
70545;SDS011;58098;51.680;5.134;2023-08-07T02:45:45;13.57;;;3.43;;
70545;SDS011;58098;51.680;5.134;2023-08-07T02:48:10;20.07;;;3.80;;
70545;SDS011;58098;51.680;5.134;2023-08-07T02:50:35;12.97;;;3.73;;
70545;SDS011;58098;51.680;5.134;2023-08-07T02:53:01;18.70;;;3.90;;
70545;SDS011;58098;51.680;5.134;2023-08-07T02:55:27;20.63;;;4.20;;
70545;SDS011;58098;51.680;5.134;2023-08-07T02:57:52;12.55;;;3.55;;
70545;SDS011;58098;51.680;5.134;2023-08-07T03:00:18;14.43;;;4.10;;
70545;SDS011;58098;51.680;5.134;2023-08-07T03:02:43;10.67;;;3.80;;
70545;SDS011;58098;51.680;5.134;2023-08-07T03:05:09;15.88;;;3.50;;
70545;SDS011;58098;51.680;5.134;2023-08-07T03:07:34;12.33;;;3.40;;
70545;SDS011;58098;51.680;5.134;2023-08-07T03:10:00;17.77;;;4.37;;
70545;SDS011;58098;51.680;5.134;2023-08-07T03:12:25;11.50;;;3.00;;
70545;SDS011;58098;51.680;5.134;2023-08-07T03:14:50;12.33;;;2.90;;
70545;SDS011;58098;51.680;5.134;2023-08-07T03:17:16;12.33;;;3.23;;
70545;SDS011;58098;51.680;5.134;2023-08-07T03:19:42;13.20;;;3.80;;
70545;SDS011;58098;51.680;5.134;2023-08-07T03:22:08;13.17;;;3.47;;
70545;SDS011;58098;51.680;5.134;2023-08-07T03:24:33;15.63;;;3.90;;
70545;SDS011;58098;51.680;5.134;2023-08-07T03:26:59;9.87;;;3.30;;
70545;SDS011;58098;51.680;5.134;2023-08-07T03:29:24;14.73;;;3.40;;
70545;SDS011;58098;51.680;5.134;2023-08-07T03:31:50;20.30;;;3.40;;
70545;SDS011;58098;51.680;5.134;2023-08-07T03:34:15;11.53;;;3.23;;
70545;SDS011;58098;51.680;5.134;2023-08-07T03:36:40;19.65;;;3.65;;
70545;SDS011;58098;51.680;5.134;2023-08-07T03:39:06;11.03;;;3.00;;
70545;SDS011;58098;51.680;5.134;2023-08-07T03:41:31;12.17;;;3.50;;
70545;SDS011;58098;51.680;5.134;2023-08-07T03:43:56;10.53;;;3.43;;
70545;SDS011;58098;51.680;5.134;2023-08-07T03:46:22;10.60;;;3.40;;
70545;SDS011;58098;51.680;5.134;2023-08-07T03:48:47;12.45;;;2.75;;
70545;SDS011;58098;51.680;5.134;2023-08-07T03:51:13;7.93;;;2.70;;
70545;SDS011;58098;51.680;5.134;2023-08-07T03:53:40;9.90;;;2.90;;
70545;SDS011;58098;51.680;5.134;2023-08-07T03:56:05;11.83;;;3.17;;
70545;SDS011;58098;51.680;5.134;2023-08-07T03:58:30;11.70;;;2.63;;
70545;SDS011;58098;51.680;5.134;2023-08-07T04:00:56;12.30;;;3.67;;
70545;SDS011;58098;51.680;5.134;2023-08-07T04:03:21;14.53;;;2.33;;
70545;SDS011;58098;51.680;5.134;2023-08-07T04:05:46;10.53;;;3.13;;
70545;SDS011;58098;51.680;5.134;2023-08-07T04:08:12;6.43;;;2.20;;
70545;SDS011;58098;51.680;5.134;2023-08-07T04:10:37;9.00;;;3.07;;
70545;SDS011;58098;51.680;5.134;2023-08-07T04:13:02;11.03;;;3.00;;
70545;SDS011;58098;51.680;5.134;2023-08-07T04:15:28;18.13;;;3.70;;
70545;SDS011;58098;51.680;5.134;2023-08-07T04:17:53;11.50;;;2.85;;
70545;SDS011;58098;51.680;5.134;2023-08-07T04:20:19;9.23;;;2.93;;
70545;SDS011;58098;51.680;5.134;2023-08-07T04:22:45;18.00;;;3.72;;
70545;SDS011;58098;51.680;5.134;2023-08-07T04:25:11;11.70;;;2.53;;
70545;SDS011;58098;51.680;5.134;2023-08-07T04:27:37;9.50;;;3.03;;
70545;SDS011;58098;51.680;5.134;2023-08-07T04:30:03;6.65;;;2.45;;
70545;SDS011;58098;51.680;5.134;2023-08-07T04:32:30;9.07;;;2.97;;
70545;SDS011;58098;51.680;5.134;2023-08-07T04:34:55;10.40;;;2.77;;
70545;SDS011;58098;51.680;5.134;2023-08-07T04:37:20;7.67;;;2.23;;
70545;SDS011;58098;51.680;5.134;2023-08-07T04:39:46;7.67;;;2.60;;
70545;SDS011;58098;51.680;5.134;2023-08-07T04:42:11;8.17;;;2.60;;
70545;SDS011;58098;51.680;5.134;2023-08-07T04:44:37;9.52;;;2.22;;
70545;SDS011;58098;51.680;5.134;2023-08-07T04:47:02;6.97;;;2.30;;
70545;SDS011;58098;51.680;5.134;2023-08-07T04:49:27;5.23;;;2.40;;
70545;SDS011;58098;51.680;5.134;2023-08-07T04:51:53;5.60;;;2.57;;
70545;SDS011;58098;51.680;5.134;2023-08-07T04:54:18;9.73;;;2.50;;
70545;SDS011;58098;51.680;5.134;2023-08-07T04:56:44;7.30;;;2.53;;
70545;SDS011;58098;51.680;5.134;2023-08-07T04:59:09;6.93;;;2.50;;
70545;SDS011;58098;51.680;5.134;2023-08-07T05:01:35;8.50;;;2.83;;
70545;SDS011;58098;51.680;5.134;2023-08-07T05:04:01;8.67;;;2.70;;
70545;SDS011;58098;51.680;5.134;2023-08-07T05:06:27;10.70;;;2.70;;
70545;SDS011;58098;51.680;5.134;2023-08-07T05:08:52;8.07;;;2.70;;
70545;SDS011;58098;51.680;5.134;2023-08-07T05:11:18;8.00;;;2.50;;
70545;SDS011;58098;51.680;5.134;2023-08-07T05:13:45;8.60;;;2.70;;
70545;SDS011;58098;51.680;5.134;2023-08-07T05:16:10;7.60;;;2.20;;
70545;SDS011;58098;51.680;5.134;2023-08-07T05:18:36;12.63;;;2.80;;
70545;SDS011;58098;51.680;5.134;2023-08-07T05:21:01;11.70;;;2.53;;
70545;SDS011;58098;51.680;5.134;2023-08-07T05:23:27;11.02;;;3.00;;
70545;SDS011;58098;51.680;5.134;2023-08-07T05:25:52;12.67;;;2.70;;
70545;SDS011;58098;51.680;5.134;2023-08-07T05:28:17;11.10;;;3.17;;
70545;SDS011;58098;51.680;5.134;2023-08-07T05:30:43;10.53;;;3.13;;
70545;SDS011;58098;51.680;5.134;2023-08-07T05:33:08;9.43;;;2.43;;
70545;SDS011;58098;51.680;5.134;2023-08-07T05:35:34;11.20;;;2.78;;
70545;SDS011;58098;51.680;5.134;2023-08-07T05:37:59;16.83;;;3.00;;
70545;SDS011;58098;51.680;5.134;2023-08-07T05:40:25;8.10;;;2.97;;
70545;SDS011;58098;51.680;5.134;2023-08-07T05:42:51;13.50;;;3.27;;
70545;SDS011;58098;51.680;5.134;2023-08-07T05:45:16;19.47;;;3.20;;
70545;SDS011;58098;51.680;5.134;2023-08-07T05:47:42;16.63;;;3.30;;
70545;SDS011;58098;51.680;5.134;2023-08-07T05:50:07;7.07;;;2.33;;
70545;SDS011;58098;51.680;5.134;2023-08-07T05:52:33;16.40;;;3.45;;
70545;SDS011;58098;51.680;5.134;2023-08-07T05:54:58;21.17;;;3.20;;
70545;SDS011;58098;51.680;5.134;2023-08-07T05:57:24;14.10;;;3.60;;
70545;SDS011;58098;51.680;5.134;2023-08-07T05:59:49;18.67;;;3.10;;
70545;SDS011;58098;51.680;5.134;2023-08-07T06:02:15;16.30;;;3.20;;
70545;SDS011;58098;51.680;5.134;2023-08-07T06:04:40;15.27;;;2.83;;
70545;SDS011;58098;51.680;5.134;2023-08-07T06:07:06;14.50;;;3.20;;
70545;SDS011;58098;51.680;5.134;2023-08-07T06:09:32;11.07;;;2.63;;
70545;SDS011;58098;51.680;5.134;2023-08-07T06:11:58;7.32;;;2.05;;
70545;SDS011;58098;51.680;5.134;2023-08-07T06:14:23;10.90;;;4.07;;
70545;SDS011;58098;51.680;5.134;2023-08-07T06:16:50;11.52;;;2.17;;
70545;SDS011;58098;51.680;5.134;2023-08-07T06:19:16;14.13;;;3.40;;
70545;SDS011;58098;51.680;5.134;2023-08-07T06:21:41;12.77;;;2.50;;
70545;SDS011;58098;51.680;5.134;2023-08-07T06:24:07;10.37;;;2.80;;
70545;SDS011;58098;51.680;5.134;2023-08-07T06:26:32;19.67;;;3.70;;
70545;SDS011;58098;51.680;5.134;2023-08-07T06:28:57;12.77;;;2.87;;
70545;SDS011;58098;51.680;5.134;2023-08-07T06:31:23;9.90;;;2.40;;
70545;SDS011;58098;51.680;5.134;2023-08-07T06:33:49;14.93;;;3.77;;
70545;SDS011;58098;51.680;5.134;2023-08-07T06:36:14;12.53;;;3.10;;
70545;SDS011;58098;51.680;5.134;2023-08-07T06:38:39;12.82;;;2.97;;
70545;SDS011;58098;51.680;5.134;2023-08-07T06:41:05;10.43;;;3.00;;
70545;SDS011;58098;51.680;5.134;2023-08-07T06:43:30;11.87;;;3.10;;
70545;SDS011;58098;51.680;5.134;2023-08-07T06:45:56;15.00;;;3.17;;
70545;SDS011;58098;51.680;5.134;2023-08-07T06:48:22;18.88;;;3.22;;
70545;SDS011;58098;51.680;5.134;2023-08-07T06:50:47;14.00;;;3.13;;
70545;SDS011;58098;51.680;5.134;2023-08-07T06:53:13;17.15;;;3.92;;
70545;SDS011;58098;51.680;5.134;2023-08-07T06:55:40;11.10;;;3.40;;
70545;SDS011;58098;51.680;5.134;2023-08-07T06:58:06;15.68;;;3.35;;
70545;SDS011;58098;51.680;5.134;2023-08-07T07:00:31;9.43;;;3.03;;
70545;SDS011;58098;51.680;5.134;2023-08-07T07:02:57;20.38;;;3.60;;
70545;SDS011;58098;51.680;5.134;2023-08-07T07:05:22;9.07;;;3.33;;
70545;SDS011;58098;51.680;5.134;2023-08-07T07:07:48;15.10;;;3.20;;
70545;SDS011;58098;51.680;5.134;2023-08-07T07:10:13;14.97;;;3.10;;
70545;SDS011;58098;51.680;5.134;2023-08-07T07:12:38;13.23;;;3.67;;
70545;SDS011;58098;51.680;5.134;2023-08-07T07:15:04;13.00;;;3.57;;
70545;SDS011;58098;51.680;5.134;2023-08-07T07:17:29;13.43;;;3.42;;
70545;SDS011;58098;51.680;5.134;2023-08-07T07:19:55;10.63;;;2.60;;
70545;SDS011;58098;51.680;5.134;2023-08-07T07:22:21;14.50;;;2.97;;
70545;SDS011;58098;51.680;5.134;2023-08-07T07:24:47;10.57;;;2.70;;
70545;SDS011;58098;51.680;5.134;2023-08-07T07:27:12;8.93;;;2.47;;
70545;SDS011;58098;51.680;5.134;2023-08-07T07:29:37;9.37;;;2.70;;
70545;SDS011;58098;51.680;5.134;2023-08-07T07:32:03;14.10;;;2.73;;
70545;SDS011;58098;51.680;5.134;2023-08-07T07:34:29;9.98;;;2.92;;
70545;SDS011;58098;51.680;5.134;2023-08-07T07:36:54;9.07;;;2.67;;
70545;SDS011;58098;51.680;5.134;2023-08-07T07:39:20;5.90;;;2.57;;
70545;SDS011;58098;51.680;5.134;2023-08-07T07:41:45;6.90;;;2.97;;
70545;SDS011;58098;51.680;5.134;2023-08-07T07:44:11;10.03;;;2.87;;
70545;SDS011;58098;51.680;5.134;2023-08-07T07:46:36;8.97;;;2.60;;
70545;SDS011;58098;51.680;5.134;2023-08-07T07:49:01;8.73;;;3.30;;
70545;SDS011;58098;51.680;5.134;2023-08-07T07:51:28;14.13;;;2.95;;
70545;SDS011;58098;51.680;5.134;2023-08-07T07:53:54;8.93;;;2.33;;
70545;SDS011;58098;51.680;5.134;2023-08-07T07:56:19;13.82;;;2.55;;
70545;SDS011;58098;51.680;5.134;2023-08-07T07:58:45;13.80;;;3.00;;
70545;SDS011;58098;51.680;5.134;2023-08-07T08:01:10;13.07;;;3.20;;
70545;SDS011;58098;51.680;5.134;2023-08-07T08:03:36;10.30;;;3.37;;
70545;SDS011;58098;51.680;5.134;2023-08-07T08:06:01;15.87;;;2.57;;
70545;SDS011;58098;51.680;5.134;2023-08-07T08:08:26;10.07;;;2.27;;
70545;SDS011;58098;51.680;5.134;2023-08-07T08:10:52;6.37;;;2.30;;
70545;SDS011;58098;51.680;5.134;2023-08-07T08:13:17;9.37;;;2.63;;
70545;SDS011;58098;51.680;5.134;2023-08-07T08:15:43;10.95;;;2.67;;
70545;SDS011;58098;51.680;5.134;2023-08-07T08:18:10;8.70;;;2.30;;
70545;SDS011;58098;51.680;5.134;2023-08-07T08:20:36;11.55;;;2.47;;
70545;SDS011;58098;51.680;5.134;2023-08-07T08:23:03;8.55;;;2.50;;
70545;SDS011;58098;51.680;5.134;2023-08-07T08:25:28;11.73;;;3.00;;
70545;SDS011;58098;51.680;5.134;2023-08-07T08:27:54;10.63;;;2.30;;
70545;SDS011;58098;51.680;5.134;2023-08-07T08:30:19;10.63;;;2.67;;
70545;SDS011;58098;51.680;5.134;2023-08-07T08:32:45;11.75;;;3.10;;
70545;SDS011;58098;51.680;5.134;2023-08-07T08:35:10;8.47;;;2.50;;
70545;SDS011;58098;51.680;5.134;2023-08-07T08:37:36;6.88;;;2.25;;
70545;SDS011;58098;51.680;5.134;2023-08-07T08:40:02;9.63;;;2.73;;
70545;SDS011;58098;51.680;5.134;2023-08-07T08:42:27;15.80;;;2.20;;
70545;SDS011;58098;51.680;5.134;2023-08-07T08:44:53;10.02;;;2.10;;
70545;SDS011;58098;51.680;5.134;2023-08-07T08:47:21;7.90;;;2.50;;
70545;SDS011;58098;51.680;5.134;2023-08-07T08:49:48;10.32;;;2.35;;
70545;SDS011;58098;51.680;5.134;2023-08-07T08:52:16;8.90;;;2.35;;
70545;SDS011;58098;51.680;5.134;2023-08-07T08:54:45;10.23;;;2.40;;
70545;SDS011;58098;51.680;5.134;2023-08-07T08:57:11;4.43;;;1.95;;
70545;SDS011;58098;51.680;5.134;2023-08-07T08:59:38;5.43;;;2.30;;
70545;SDS011;58098;51.680;5.134;2023-08-07T09:02:05;10.20;;;2.15;;
70545;SDS011;58098;51.680;5.134;2023-08-07T09:04:30;7.47;;;2.57;;
70545;SDS011;58098;51.680;5.134;2023-08-07T09:06:55;6.97;;;1.98;;
70545;SDS011;58098;51.680;5.134;2023-08-07T09:09:21;8.63;;;2.20;;
70545;SDS011;58098;51.680;5.134;2023-08-07T09:11:48;7.68;;;2.17;;
70545;SDS011;58098;51.680;5.134;2023-08-07T09:14:16;6.43;;;2.35;;
70545;SDS011;58098;51.680;5.134;2023-08-07T09:16:45;9.60;;;2.43;;
70545;SDS011;58098;51.680;5.134;2023-08-07T09:19:13;5.25;;;2.10;;
70545;SDS011;58098;51.680;5.134;2023-08-07T09:21:38;7.28;;;2.05;;
70545;SDS011;58098;51.680;5.134;2023-08-07T09:24:04;8.93;;;1.83;;
70545;SDS011;58098;51.680;5.134;2023-08-07T09:26:29;8.07;;;2.03;;
70545;SDS011;58098;51.680;5.134;2023-08-07T09:28:58;6.07;;;2.22;;
70545;SDS011;58098;51.680;5.134;2023-08-07T09:31:24;7.20;;;2.58;;
70545;SDS011;58098;51.680;5.134;2023-08-07T09:33:54;9.93;;;2.17;;
70545;SDS011;58098;51.680;5.134;2023-08-07T09:36:19;6.53;;;2.05;;
70545;SDS011;58098;51.680;5.134;2023-08-07T09:38:49;7.57;;;2.37;;
70545;SDS011;58098;51.680;5.134;2023-08-07T09:41:17;6.38;;;2.10;;
70545;SDS011;58098;51.680;5.134;2023-08-07T09:43:44;8.03;;;2.40;;
70545;SDS011;58098;51.680;5.134;2023-08-07T09:46:09;5.70;;;1.65;;
70545;SDS011;58098;51.680;5.134;2023-08-07T09:48:41;10.13;;;2.37;;
70545;SDS011;58098;51.680;5.134;2023-08-07T09:51:07;7.65;;;2.00;;
70545;SDS011;58098;51.680;5.134;2023-08-07T09:53:33;4.30;;;1.90;;
70545;SDS011;58098;51.680;5.134;2023-08-07T09:55:58;5.57;;;1.93;;
70545;SDS011;58098;51.680;5.134;2023-08-07T09:58:25;4.00;;;1.80;;
70545;SDS011;58098;51.680;5.134;2023-08-07T10:00:51;5.00;;;1.70;;
70545;SDS011;58098;51.680;5.134;2023-08-07T10:03:21;2.95;;;1.73;;
70545;SDS011;58098;51.680;5.134;2023-08-07T10:05:47;3.83;;;2.05;;
70545;SDS011;58098;51.680;5.134;2023-08-07T10:08:13;12.20;;;2.20;;
70545;SDS011;58098;51.680;5.134;2023-08-07T10:10:39;5.60;;;2.05;;
70545;SDS011;58098;51.680;5.134;2023-08-07T10:13:05;7.40;;;1.55;;
70545;SDS011;58098;51.680;5.134;2023-08-07T10:15:31;6.70;;;1.70;;
70545;SDS011;58098;51.680;5.134;2023-08-07T10:17:57;5.20;;;1.63;;
70545;SDS011;58098;51.680;5.134;2023-08-07T10:20:26;5.03;;;1.90;;
70545;SDS011;58098;51.680;5.134;2023-08-07T10:22:52;3.28;;;1.88;;
70545;SDS011;58098;51.680;5.134;2023-08-07T10:25:20;4.45;;;1.80;;
70545;SDS011;58098;51.680;5.134;2023-08-07T10:27:47;7.93;;;1.80;;
70545;SDS011;58098;51.680;5.134;2023-08-07T10:30:16;9.48;;;2.05;;
70545;SDS011;58098;51.680;5.134;2023-08-07T10:32:44;3.47;;;1.60;;
70545;SDS011;58098;51.680;5.134;2023-08-07T10:35:32;4.90;;;1.98;;
70545;SDS011;58098;51.680;5.134;2023-08-07T10:38:07;6.78;;;2.17;;
70545;SDS011;58098;51.680;5.134;2023-08-07T10:40:34;6.47;;;2.10;;
70545;SDS011;58098;51.680;5.134;2023-08-07T10:43:19;5.35;;;2.00;;
70545;SDS011;58098;51.680;5.134;2023-08-07T10:45:45;6.67;;;2.03;;
70545;SDS011;58098;51.680;5.134;2023-08-07T10:48:11;6.23;;;2.00;;
70545;SDS011;58098;51.680;5.134;2023-08-07T10:53:20;6.77;;;2.10;;
70545;SDS011;58098;51.680;5.134;2023-08-07T10:55:53;8.95;;;2.20;;
70545;SDS011;58098;51.680;5.134;2023-08-07T10:58:22;4.65;;;2.20;;
70545;SDS011;58098;51.680;5.134;2023-08-07T11:00:49;4.53;;;1.85;;
70545;SDS011;58098;51.680;5.134;2023-08-07T11:03:39;4.75;;;1.80;;
70545;SDS011;58098;51.680;5.134;2023-08-07T11:06:08;5.00;;;1.77;;
70545;SDS011;58098;51.680;5.134;2023-08-07T11:08:34;4.63;;;1.80;;
70545;SDS011;58098;51.680;5.134;2023-08-07T11:11:03;5.53;;;1.93;;
70545;SDS011;58098;51.680;5.134;2023-08-07T11:13:35;5.82;;;2.58;;
70545;SDS011;58098;51.680;5.134;2023-08-07T11:16:03;6.97;;;2.40;;
70545;SDS011;58098;51.680;5.134;2023-08-07T11:18:30;5.78;;;2.20;;
70545;SDS011;58098;51.680;5.134;2023-08-07T11:20:56;6.07;;;2.13;;
70545;SDS011;58098;51.680;5.134;2023-08-07T11:23:22;5.17;;;2.33;;
70545;SDS011;58098;51.680;5.134;2023-08-07T11:25:49;4.40;;;1.63;;
70545;SDS011;58098;51.680;5.134;2023-08-07T11:28:17;7.63;;;2.20;;
70545;SDS011;58098;51.680;5.134;2023-08-07T11:30:49;4.70;;;1.63;;
70545;SDS011;58098;51.680;5.134;2023-08-07T11:33:20;6.80;;;2.25;;
70545;SDS011;58098;51.680;5.134;2023-08-07T11:35:46;5.33;;;2.30;;
70545;SDS011;58098;51.680;5.134;2023-08-07T11:38:13;3.47;;;1.50;;
70545;SDS011;58098;51.680;5.134;2023-08-07T11:40:53;5.82;;;2.00;;
70545;SDS011;58098;51.680;5.134;2023-08-07T11:43:18;4.73;;;2.20;;
70545;SDS011;58098;51.680;5.134;2023-08-07T11:45:44;3.83;;;2.07;;
70545;SDS011;58098;51.680;5.134;2023-08-07T11:48:09;4.13;;;1.75;;
70545;SDS011;58098;51.680;5.134;2023-08-07T11:50:35;4.73;;;1.83;;
70545;SDS011;58098;51.680;5.134;2023-08-07T11:53:00;3.87;;;2.00;;
70545;SDS011;58098;51.680;5.134;2023-08-07T11:55:27;5.03;;;2.30;;
70545;SDS011;58098;51.680;5.134;2023-08-07T11:57:53;6.43;;;1.90;;
70545;SDS011;58098;51.680;5.134;2023-08-07T12:00:19;4.87;;;2.53;;
70545;SDS011;58098;51.680;5.134;2023-08-07T12:02:45;7.53;;;1.92;;
70545;SDS011;58098;51.680;5.134;2023-08-07T12:05:11;3.60;;;2.17;;
70545;SDS011;58098;51.680;5.134;2023-08-07T12:07:37;6.85;;;1.92;;
70545;SDS011;58098;51.680;5.134;2023-08-07T12:10:06;6.53;;;2.42;;
70545;SDS011;58098;51.680;5.134;2023-08-07T12:12:33;4.77;;;2.00;;
70545;SDS011;58098;51.680;5.134;2023-08-07T12:15:00;3.90;;;2.00;;
70545;SDS011;58098;51.680;5.134;2023-08-07T12:17:25;8.40;;;2.30;;
70545;SDS011;58098;51.680;5.134;2023-08-07T12:19:51;5.90;;;2.10;;
70545;SDS011;58098;51.680;5.134;2023-08-07T12:22:18;4.70;;;1.80;;
70545;SDS011;58098;51.680;5.134;2023-08-07T12:24:44;5.47;;;1.80;;
70545;SDS011;58098;51.680;5.134;2023-08-07T12:27:10;3.47;;;1.90;;
70545;SDS011;58098;51.680;5.134;2023-08-07T12:29:36;6.03;;;2.10;;
70545;SDS011;58098;51.680;5.134;2023-08-07T12:32:01;5.60;;;2.22;;
70545;SDS011;58098;51.680;5.134;2023-08-07T12:34:27;3.83;;;2.07;;
70545;SDS011;58098;51.680;5.134;2023-08-07T12:36:53;8.35;;;2.40;;
70545;SDS011;58098;51.680;5.134;2023-08-07T12:39:19;6.90;;;2.70;;
70545;SDS011;58098;51.680;5.134;2023-08-07T12:41:45;8.18;;;2.80;;
70545;SDS011;58098;51.680;5.134;2023-08-07T12:44:13;8.75;;;3.03;;
70545;SDS011;58098;51.680;5.134;2023-08-07T12:46:38;6.20;;;3.50;;
70545;SDS011;58098;51.680;5.134;2023-08-07T12:49:05;8.38;;;2.75;;
70545;SDS011;58098;51.680;5.134;2023-08-07T12:51:32;12.03;;;2.80;;
70545;SDS011;58098;51.680;5.134;2023-08-07T12:53:57;9.03;;;3.10;;
70545;SDS011;58098;51.680;5.134;2023-08-07T12:56:22;6.70;;;3.30;;
70545;SDS011;58098;51.680;5.134;2023-08-07T12:58:48;9.83;;;3.33;;
70545;SDS011;58098;51.680;5.134;2023-08-07T13:01:15;9.63;;;2.97;;
70545;SDS011;58098;51.680;5.134;2023-08-07T13:03:40;6.05;;;2.50;;
70545;SDS011;58098;51.680;5.134;2023-08-07T13:06:05;6.67;;;2.83;;
70545;SDS011;58098;51.680;5.134;2023-08-07T13:08:33;6.87;;;2.53;;
70545;SDS011;58098;51.680;5.134;2023-08-07T13:11:00;6.10;;;2.38;;
70545;SDS011;58098;51.680;5.134;2023-08-07T13:13:28;7.47;;;2.58;;
70545;SDS011;58098;51.680;5.134;2023-08-07T13:15:53;8.13;;;2.70;;
70545;SDS011;58098;51.680;5.134;2023-08-07T13:18:19;6.90;;;2.80;;
70545;SDS011;58098;51.680;5.134;2023-08-07T13:20:45;7.97;;;3.03;;
70545;SDS011;58098;51.680;5.134;2023-08-07T13:23:10;6.47;;;2.80;;
70545;SDS011;58098;51.680;5.134;2023-08-07T13:25:37;8.63;;;3.47;;
70545;SDS011;58098;51.680;5.134;2023-08-07T13:28:02;11.80;;;3.47;;
70545;SDS011;58098;51.680;5.134;2023-08-07T13:30:31;4.85;;;2.75;;
70545;SDS011;58098;51.680;5.134;2023-08-07T13:32:59;11.38;;;3.13;;
70545;SDS011;58098;51.680;5.134;2023-08-07T13:35:25;8.50;;;2.87;;
70545;SDS011;58098;51.680;5.134;2023-08-07T13:37:50;10.57;;;3.20;;
70545;SDS011;58098;51.680;5.134;2023-08-07T13:40:16;6.37;;;2.63;;
70545;SDS011;58098;51.680;5.134;2023-08-07T13:42:41;4.87;;;2.90;;
70545;SDS011;58098;51.680;5.134;2023-08-07T13:45:07;8.23;;;2.83;;
70545;SDS011;58098;51.680;5.134;2023-08-07T13:47:32;4.83;;;2.60;;
70545;SDS011;58098;51.680;5.134;2023-08-07T13:49:58;7.97;;;2.63;;
70545;SDS011;58098;51.680;5.134;2023-08-07T13:52:23;4.57;;;2.60;;
70545;SDS011;58098;51.680;5.134;2023-08-07T13:54:50;7.77;;;2.53;;
70545;SDS011;58098;51.680;5.134;2023-08-07T13:57:15;2.85;;;2.40;;
70545;SDS011;58098;51.680;5.134;2023-08-07T13:59:41;5.13;;;2.37;;
70545;SDS011;58098;51.680;5.134;2023-08-07T14:02:06;4.80;;;2.67;;
70545;SDS011;58098;51.680;5.134;2023-08-07T14:04:32;7.10;;;2.27;;
70545;SDS011;58098;51.680;5.134;2023-08-07T14:06:57;4.20;;;2.30;;
70545;SDS011;58098;51.680;5.134;2023-08-07T14:09:24;7.68;;;3.10;;
70545;SDS011;58098;51.680;5.134;2023-08-07T14:11:49;4.53;;;2.65;;
70545;SDS011;58098;51.680;5.134;2023-08-07T14:14:15;4.47;;;2.50;;
70545;SDS011;58098;51.680;5.134;2023-08-07T14:16:40;6.57;;;2.80;;
70545;SDS011;58098;51.680;5.134;2023-08-07T14:19:05;7.20;;;2.60;;
70545;SDS011;58098;51.680;5.134;2023-08-07T14:21:31;4.00;;;2.47;;
70545;SDS011;58098;51.680;5.134;2023-08-07T14:23:56;5.70;;;2.60;;
70545;SDS011;58098;51.680;5.134;2023-08-07T14:26:21;4.47;;;2.50;;
70545;SDS011;58098;51.680;5.134;2023-08-07T14:28:47;4.80;;;2.63;;
70545;SDS011;58098;51.680;5.134;2023-08-07T14:31:12;6.00;;;3.17;;
70545;SDS011;58098;51.680;5.134;2023-08-07T14:33:38;5.40;;;3.10;;
70545;SDS011;58098;51.680;5.134;2023-08-07T14:36:04;7.68;;;3.10;;
70545;SDS011;58098;51.680;5.134;2023-08-07T14:38:29;6.47;;;3.10;;
70545;SDS011;58098;51.680;5.134;2023-08-07T14:40:55;8.87;;;2.80;;
70545;SDS011;58098;51.680;5.134;2023-08-07T14:43:21;4.65;;;2.45;;
70545;SDS011;58098;51.680;5.134;2023-08-07T14:45:47;3.95;;;2.20;;